createdAt,value
2022-08-16T00:00:48.025Z,0.82
2022-08-16T00:04:55.624Z,1.02
2022-08-16T00:09:05.304Z,1.52
2022-08-16T00:13:11.374Z,0.95
2022-08-16T00:17:18.842Z,0.90
2022-08-16T00:21:22.591Z,1.42
2022-08-16T00:26:34.562Z,0.95
2022-08-16T00:30:00.601Z,1.10
2022-08-16T00:34:18.533Z,0.80
2022-08-16T00:38:40.322Z,0.85
2022-08-16T00:42:47.545Z,0.80
2022-08-16T00:47:06.791Z,0.80
2022-08-16T00:51:10.556Z,1.23
2022-08-16T00:55:21.930Z,0.75
2022-08-16T00:59:32.985Z,1.05
2022-08-16T01:03:41.609Z,1.10
2022-08-16T01:07:51.374Z,1.52
2022-08-16T01:11:56.889Z,1.20
2022-08-16T01:16:04.679Z,1.25
2022-08-16T01:20:24.416Z,1.60
2022-08-16T01:24:52.502Z,1.05
2022-08-16T01:28:58.420Z,1.20
2022-08-16T01:33:15.213Z,0.98
2022-08-16T01:37:19.053Z,1.42
2022-08-16T01:41:31.782Z,1.23
2022-08-16T01:45:40.304Z,1.88
2022-08-16T01:50:41.006Z,1.60
2022-08-16T01:54:09.277Z,1.38
2022-08-16T01:58:20.994Z,0.82
2022-08-16T02:02:27.488Z,1.15
2022-08-16T02:06:34.154Z,1.80
2022-08-16T02:10:40.763Z,1.10
2022-08-16T02:14:46.879Z,1.38
2022-08-16T02:18:50.136Z,0.88
2022-08-16T02:22:55.335Z,1.38
2022-08-16T02:26:58.998Z,1.35
2022-08-16T02:31:08.328Z,1.13
2022-08-16T02:35:13.473Z,1.02
2022-08-16T02:39:22.952Z,1.15
2022-08-16T02:43:28.888Z,1.75
2022-08-16T02:48:00.243Z,1.30
2022-08-16T02:52:01.254Z,1.88
2022-08-16T02:56:09.815Z,1.52
2022-08-16T03:00:34.411Z,1.60
2022-08-16T03:04:50.384Z,1.60
2022-08-16T03:08:56.184Z,1.00
2022-08-16T03:13:00.583Z,1.17
2022-08-16T03:17:04.884Z,1.30
2022-08-16T03:21:10.245Z,1.10
2022-08-16T03:25:17.993Z,1.33
2022-08-16T03:29:21.818Z,1.10
2022-08-16T03:38:01.377Z,0.85
2022-08-16T03:42:00.417Z,1.50
2022-08-16T03:46:05.304Z,1.40
2022-08-16T03:50:26.192Z,1.55
2022-08-16T03:54:32.001Z,1.13
2022-08-16T03:58:38.947Z,1.45
2022-08-16T04:02:42.832Z,1.48
2022-08-16T04:06:46.133Z,1.30
2022-08-16T04:10:51.897Z,1.52
2022-08-16T04:14:55.355Z,1.35
2022-08-16T04:19:02.434Z,1.58
2022-08-16T04:23:09.690Z,1.52
2022-08-16T04:27:14.114Z,1.00
2022-08-16T04:31:17.640Z,1.52
2022-08-16T04:35:23.471Z,1.30
2022-08-16T04:39:44.836Z,1.48
2022-08-16T04:43:51.969Z,1.30
2022-08-16T04:47:56.056Z,1.23
2022-08-16T04:51:59.450Z,1.35
2022-08-16T04:56:04.076Z,1.15
2022-08-16T05:00:25.296Z,1.58
2022-08-16T05:04:35.286Z,1.70
2022-08-16T05:08:38.890Z,0.98
2022-08-16T05:12:50.741Z,1.65
2022-08-16T05:16:56.809Z,1.60
2022-08-16T05:21:01.725Z,1.58
2022-08-16T05:25:14.701Z,2.05
2022-08-16T05:29:20.537Z,2.03
2022-08-16T05:33:26.002Z,1.70
2022-08-16T05:37:39.647Z,1.65
2022-08-16T05:45:50.899Z,1.70
2022-08-16T05:49:56.167Z,1.20
2022-08-16T05:54:00.298Z,1.45
2022-08-16T05:58:04.368Z,1.67
2022-08-16T06:02:09.155Z,1.38
2022-08-16T06:06:14.399Z,1.13
2022-08-16T06:10:33.281Z,1.55
2022-08-16T06:14:36.607Z,1.38
2022-08-16T06:18:45.709Z,1.25
2022-08-16T06:22:57.909Z,1.52
2022-08-16T06:27:07.630Z,1.35
2022-08-16T06:31:13.282Z,1.30
2022-08-16T06:35:17.591Z,1.05
2022-08-16T06:39:22.857Z,1.25
2022-08-16T06:43:27.384Z,1.35
2022-08-16T06:47:52.890Z,1.38
2022-08-16T06:51:54.900Z,1.85
2022-08-16T06:56:14.330Z,1.55
2022-08-16T07:00:27.298Z,1.52
2022-08-16T07:04:36.916Z,1.98
2022-08-16T07:08:43.228Z,1.23
2022-08-16T07:13:03.577Z,1.67
2022-08-16T07:17:12.853Z,1.35
2022-08-16T07:21:17.179Z,1.60
2022-08-16T07:25:22.867Z,1.05
2022-08-16T07:29:27.616Z,1.30
2022-08-16T07:33:52.546Z,1.75
2022-08-16T07:37:57.978Z,1.35
2022-08-16T07:42:02.808Z,1.63
2022-08-16T07:46:38.993Z,1.20
2022-08-16T07:50:57.184Z,1.05
2022-08-16T07:54:58.545Z,1.08
2022-08-16T07:59:03.026Z,1.30
2022-08-16T08:03:08.129Z,1.30
2022-08-16T08:07:14.770Z,1.30
2022-08-16T08:11:19.599Z,1.10
2022-08-16T08:15:25.629Z,0.60
2022-08-16T08:19:31.456Z,1.00
2022-08-16T08:23:37.041Z,1.00
2022-08-16T08:27:46.363Z,0.75
2022-08-16T08:31:49.889Z,0.77
2022-08-16T08:36:01.071Z,0.75
2022-08-16T08:40:07.584Z,1.25
2022-08-16T08:44:28.527Z,1.48
2022-08-16T08:48:36.815Z,1.00
2022-08-16T08:52:41.557Z,1.00
2022-08-16T08:56:52.377Z,0.68
2022-08-16T09:00:57.093Z,0.80
2022-08-16T09:05:15.636Z,0.70
2022-08-16T09:09:20.855Z,0.75
2022-08-16T09:13:25.186Z,1.30
2022-08-16T09:17:52.104Z,0.80
2022-08-16T09:27:15.971Z,0.98
2022-08-16T09:31:22.282Z,0.93
2022-08-16T09:35:26.932Z,0.68
2022-08-16T09:39:42.179Z,0.60
2022-08-16T09:48:08.813Z,0.47
2022-08-16T09:52:13.046Z,0.82
2022-08-16T09:56:26.406Z,0.80
2022-08-16T10:00:44.473Z,0.75
2022-08-16T10:04:54.687Z,0.52
2022-08-16T10:09:05.160Z,0.80
2022-08-16T10:13:16.770Z,0.70
2022-08-16T10:17:22.062Z,0.57
2022-08-16T10:21:29.709Z,0.50
2022-08-16T10:27:19.389Z,0.60
2022-08-16T10:30:07.088Z,0.70
2022-08-16T10:34:32.482Z,0.80
2022-08-16T10:38:40.027Z,0.45
2022-08-16T10:42:45.736Z,0.57
2022-08-16T10:46:50.462Z,0.60
2022-08-16T10:50:54.179Z,0.50
2022-08-16T10:55:40.726Z,0.63
2022-08-16T10:59:44.600Z,0.60
2022-08-16T11:03:49.222Z,0.90
2022-08-16T11:07:58.542Z,0.60
2022-08-16T11:12:13.875Z,0.43
2022-08-16T11:16:26.468Z,0.70
2022-08-16T11:20:41.545Z,0.45
2022-08-16T11:24:46.533Z,0.60
2022-08-16T11:29:13.472Z,0.40
2022-08-16T11:33:17.746Z,0.73
2022-08-16T11:37:27.571Z,0.65
2022-08-16T11:41:44.683Z,0.57
2022-08-16T11:45:57.409Z,0.60
2022-08-16T11:50:08.189Z,0.50
2022-08-16T11:54:21.378Z,0.60
2022-08-16T11:58:28.281Z,0.60
2022-08-16T12:02:33.263Z,0.52
2022-08-16T12:06:37.001Z,0.68
2022-08-16T12:10:43.205Z,0.50
2022-08-16T12:14:47.125Z,0.45
2022-08-16T12:18:52.448Z,0.60
2022-08-16T12:22:56.790Z,0.50
2022-08-16T12:27:02.550Z,0.55
2022-08-16T12:31:06.804Z,0.60
2022-08-16T12:35:14.803Z,0.60
2022-08-16T12:39:21.061Z,0.65
2022-08-16T12:43:26.660Z,1.05
2022-08-16T12:48:00.936Z,0.40
2022-08-16T12:52:33.772Z,0.40
2022-08-16T13:00:44.485Z,0.57
2022-08-16T13:04:48.209Z,0.75
2022-08-16T13:08:57.335Z,0.70
2022-08-16T13:13:00.844Z,0.73
2022-08-16T13:17:06.927Z,0.77
2022-08-16T13:21:11.773Z,0.75
2022-08-16T13:25:21.905Z,0.75
2022-08-16T13:29:25.627Z,0.40
2022-08-16T13:33:46.379Z,0.70
2022-08-16T13:37:49.615Z,0.80
2022-08-16T13:41:56.684Z,0.57
2022-08-16T13:46:04.598Z,0.70
2022-08-16T13:50:10.176Z,0.80
2022-08-16T13:58:36.964Z,1.00
2022-08-16T14:02:49.350Z,0.70
2022-08-16T14:06:54.022Z,0.52
2022-08-16T14:10:58.770Z,0.52
2022-08-16T14:15:04.667Z,0.70
2022-08-16T14:19:08.824Z,0.60
2022-08-16T14:23:12.920Z,0.73
2022-08-16T14:27:18.637Z,0.50
2022-08-16T14:31:27.213Z,0.50
2022-08-16T14:35:48.139Z,0.70
2022-08-16T14:39:53.655Z,0.50
2022-08-16T14:43:57.576Z,0.40
2022-08-16T14:48:03.017Z,0.70
2022-08-16T14:52:09.495Z,0.80
2022-08-16T14:56:17.619Z,0.60
2022-08-16T15:00:38.507Z,0.60
2022-08-16T15:04:48.235Z,0.40
2022-08-16T15:08:53.385Z,0.80
2022-08-16T15:12:58.553Z,0.85
2022-08-16T15:17:03.412Z,0.75
2022-08-16T15:21:08.865Z,0.68
2022-08-16T15:25:15.181Z,0.32
2022-08-16T15:29:20.793Z,0.60
2022-08-16T15:33:27.469Z,0.55
2022-08-16T15:37:42.522Z,0.60
2022-08-16T15:42:01.190Z,0.90
2022-08-16T15:46:35.468Z,0.80
2022-08-16T15:50:45.912Z,0.85
2022-08-16T15:54:53.679Z,0.70
2022-08-16T15:58:59.142Z,0.50
2022-08-16T16:03:03.911Z,0.60
2022-08-16T16:07:11.567Z,0.50
2022-08-16T16:11:19.268Z,0.65
2022-08-16T16:15:30.512Z,0.40
2022-08-16T16:19:34.776Z,0.60
2022-08-16T16:23:53.824Z,0.47
2022-08-16T16:28:01.389Z,0.67
2022-08-16T16:32:07.650Z,0.80
2022-08-16T16:36:15.254Z,0.50
2022-08-16T16:40:28.819Z,0.45
2022-08-16T16:44:38.400Z,0.63
2022-08-16T16:48:54.702Z,0.70
2022-08-16T16:52:59.060Z,0.85
2022-08-16T16:57:02.830Z,0.60
2022-08-16T17:01:09.062Z,0.77
2022-08-16T17:05:12.387Z,0.75
2022-08-16T17:09:16.652Z,0.80
2022-08-16T17:13:21.746Z,0.95
2022-08-16T17:17:26.644Z,0.80
2022-08-16T17:21:30.559Z,0.50
2022-08-16T17:25:36.841Z,0.73
2022-08-16T17:29:46.086Z,0.68
2022-08-16T17:33:54.609Z,0.60
2022-08-16T17:38:03.176Z,0.50
2022-08-16T17:42:10.497Z,0.60
2022-08-16T17:46:41.762Z,0.70
2022-08-16T17:50:42.453Z,0.93
2022-08-16T17:54:46.382Z,0.77
2022-08-16T17:58:49.766Z,0.77
2022-08-16T18:02:53.633Z,0.52
2022-08-16T18:06:58.696Z,1.05
2022-08-16T18:11:03.062Z,0.65
2022-08-16T18:15:10.466Z,0.70
2022-08-16T18:19:14.198Z,0.60
2022-08-16T18:23:21.921Z,0.88
2022-08-16T18:27:29.024Z,0.85
2022-08-16T18:31:33.211Z,0.95
2022-08-16T18:35:37.122Z,0.85
2022-08-16T18:39:42.376Z,0.88
2022-08-16T18:44:23.159Z,0.85
2022-08-16T18:48:10.897Z,1.45
2022-08-16T18:52:25.200Z,1.05
2022-08-16T18:56:55.052Z,1.00
2022-08-16T19:00:56.364Z,1.33
2022-08-16T19:05:03.648Z,0.77
2022-08-16T19:09:08.705Z,1.00
2022-08-16T19:13:16.448Z,0.47
2022-08-16T19:17:20.076Z,0.70
2022-08-16T19:21:23.656Z,0.82
2022-08-16T19:25:47.130Z,0.70
2022-08-16T19:29:54.640Z,1.00
2022-08-16T19:33:58.470Z,1.02
2022-08-16T19:38:02.081Z,1.00
2022-08-16T19:42:13.711Z,1.10
2022-08-16T19:46:18.967Z,1.23
2022-08-16T19:50:36.198Z,1.35
2022-08-16T19:54:41.230Z,1.48
2022-08-16T19:59:15.911Z,1.05
2022-08-16T20:03:16.458Z,1.00
2022-08-16T20:07:20.695Z,1.17
2022-08-16T20:11:25.116Z,1.05
2022-08-16T20:15:31.672Z,1.88
2022-08-16T20:19:40.632Z,1.30
2022-08-16T20:23:44.736Z,1.50
2022-08-16T20:27:48.005Z,1.90
2022-08-16T20:31:51.635Z,1.77
2022-08-16T20:35:56.215Z,1.38
2022-08-16T20:40:27.807Z,1.80
2022-08-16T20:44:26.246Z,1.75
2022-08-16T20:48:29.423Z,1.73
2022-08-16T20:52:34.253Z,1.60
2022-08-16T20:56:38.049Z,1.92
2022-08-16T21:00:42.188Z,2.00
2022-08-16T21:04:46.381Z,1.67
2022-08-16T21:08:54.281Z,1.63
2022-08-16T21:13:02.848Z,1.70
2022-08-16T21:17:09.214Z,1.52
2022-08-16T21:21:13.616Z,1.95
2022-08-16T21:25:19.729Z,1.58
2022-08-16T21:29:39.004Z,1.35
2022-08-16T21:33:44.790Z,1.33
2022-08-16T21:38:00.096Z,1.17
2022-08-16T21:42:23.442Z,1.65
2022-08-16T21:46:27.122Z,1.38
2022-08-16T21:50:31.087Z,1.23
2022-08-16T21:54:35.752Z,1.15
2022-08-16T21:58:40.843Z,1.15
2022-08-16T22:02:46.776Z,1.40
2022-08-16T22:06:54.242Z,1.25
2022-08-16T22:11:04.463Z,1.40
2022-08-16T22:15:13.785Z,1.48
2022-08-16T22:19:17.585Z,1.80
2022-08-16T22:23:24.359Z,1.67
2022-08-16T22:27:28.517Z,1.80
2022-08-16T22:31:33.732Z,1.42
2022-08-16T22:35:45.314Z,0.82
2022-08-16T22:39:48.956Z,1.67
2022-08-16T22:43:52.062Z,1.85
2022-08-16T22:47:57.401Z,1.30
2022-08-16T22:52:06.394Z,1.63
2022-08-16T22:56:10.027Z,1.70
2022-08-16T23:00:16.867Z,1.70
2022-08-16T23:04:22.011Z,1.52
2022-08-16T23:08:38.054Z,1.73
2022-08-16T23:12:49.618Z,1.67
2022-08-16T23:16:53.005Z,1.70
2022-08-16T23:21:01.448Z,1.55
2022-08-16T23:25:05.203Z,1.75
2022-08-16T23:29:21.141Z,1.77
2022-08-16T23:33:30.284Z,1.80
2022-08-16T23:37:35.300Z,1.70
2022-08-16T23:41:38.478Z,1.67
2022-08-16T23:45:43.984Z,2.25
2022-08-16T23:50:00.170Z,1.33
2022-08-16T23:54:11.596Z,1.60
2022-08-16T23:58:17.155Z,2.08
